L'Anse-Saint-Jean, Canada
Current Conditions -  °F | °C
As of 8:00 PM on Saturday 25 Oct 2014 (Local Time) from CYBG Reporting Station
Overcast Overcast  
Wind Chill: 35°   Ceiling: 10000
Heat Index: 43°   Visibility: 25mi
Dew Point: 37°   Wind: 17mph
Humidity: 81%   Direction: 90°E
Pressure: 29.46"   Gusts: NA
Location:  48.23°N, 70.18°W
Report Text: CYBG 260000Z 09015KT 25SM FEW050 OVC100 06/03 A2946 RMK SC2AC6 SLP982
Loading
Personal Weather Stations






























Interactive Weather Map
Tropical Storm Tracking
New forecast layout! Learn more

10-Day Weather Forecast

Advertisements
Track Severe Weather on mobile